sensor_id;sensor_type;location;lat;lon;timestamp;pressure;altitude;pressure_sealevel;temperature;humidity
27712;BME280;2377;51.734;8.950;2023-01-29T00:02:26;99018.34;;;-3.43;79.45
27712;BME280;2377;51.734;8.950;2023-01-29T00:04:54;99019.22;;;-3.44;79.71
27712;BME280;2377;51.734;8.950;2023-01-29T00:07:21;99014.41;;;-3.47;80.24
27712;BME280;2377;51.734;8.950;2023-01-29T00:09:48;99016.81;;;-3.46;80.10
27712;BME280;2377;51.734;8.950;2023-01-29T00:12:15;99010.84;;;-3.43;80.43
27712;BME280;2377;51.734;8.950;2023-01-29T00:14:42;99015.84;;;-3.43;80.29
27712;BME280;2377;51.734;8.950;2023-01-29T00:17:09;99007.38;;;-3.55;80.11
27712;BME280;2377;51.734;8.950;2023-01-29T00:19:36;98992.94;;;-3.64;79.88
27712;BME280;2377;51.734;8.950;2023-01-29T00:22:05;98998.75;;;-3.64;80.13
27712;BME280;2377;51.734;8.950;2023-01-29T00:24:32;99001.03;;;-3.61;80.57
27712;BME280;2377;51.734;8.950;2023-01-29T00:26:59;98995.16;;;-3.59;80.61
27712;BME280;2377;51.734;8.950;2023-01-29T00:29:26;99000.84;;;-3.57;80.34
27712;BME280;2377;51.734;8.950;2023-01-29T00:31:53;98993.25;;;-3.56;80.17
27712;BME280;2377;51.734;8.950;2023-01-29T00:34:20;98990.69;;;-3.54;80.20
27712;BME280;2377;51.734;8.950;2023-01-29T00:36:48;98986.75;;;-3.58;79.91
27712;BME280;2377;51.734;8.950;2023-01-29T00:39:16;98985.19;;;-3.59;80.08
27712;BME280;2377;51.734;8.950;2023-01-29T00:41:49;98981.06;;;-3.61;80.08
27712;BME280;2377;51.734;8.950;2023-01-29T00:44:34;98975.34;;;-3.63;80.09
27712;BME280;2377;51.734;8.950;2023-01-29T00:47:18;98972.13;;;-3.65;80.28
27712;BME280;2377;51.734;8.950;2023-01-29T00:49:59;98966.47;;;-3.67;80.25
27712;BME280;2377;51.734;8.950;2023-01-29T00:52:27;98965.63;;;-3.67;80.36
27712;BME280;2377;51.734;8.950;2023-01-29T00:54:57;98972.34;;;-3.68;80.49
27712;BME280;2377;51.734;8.950;2023-01-29T00:57:29;98971.72;;;-3.71;80.34
27712;BME280;2377;51.734;8.950;2023-01-29T00:59:56;98974.50;;;-3.76;80.24
27712;BME280;2377;51.734;8.950;2023-01-29T01:02:24;98973.16;;;-3.82;79.70
27712;BME280;2377;51.734;8.950;2023-01-29T01:05:11;98976.66;;;-3.84;79.77
27712;BME280;2377;51.734;8.950;2023-01-29T01:07:43;98979.59;;;-3.92;79.43
27712;BME280;2377;51.734;8.950;2023-01-29T01:10:15;98987.81;;;-3.90;80.06
27712;BME280;2377;51.734;8.950;2023-01-29T01:12:51;98986.56;;;-3.97;79.73
27712;BME280;2377;51.734;8.950;2023-01-29T01:15:20;98987.63;;;-4.01;79.94
27712;BME280;2377;51.734;8.950;2023-01-29T01:17:50;98991.13;;;-4.04;79.50
27712;BME280;2377;51.734;8.950;2023-01-29T01:20:18;98993.69;;;-4.05;79.79
27712;BME280;2377;51.734;8.950;2023-01-29T01:22:45;98997.09;;;-4.06;79.60
27712;BME280;2377;51.734;8.950;2023-01-29T01:25:13;98997.00;;;-4.05;80.08
27712;BME280;2377;51.734;8.950;2023-01-29T01:27:42;98990.41;;;-4.06;80.02
27712;BME280;2377;51.734;8.950;2023-01-29T01:30:13;99001.28;;;-4.07;80.28
27712;BME280;2377;51.734;8.950;2023-01-29T01:32:42;98986.22;;;-4.05;80.61
27712;BME280;2377;51.734;8.950;2023-01-29T01:35:10;98978.44;;;-4.00;80.60
27712;BME280;2377;51.734;8.950;2023-01-29T01:37:38;98973.19;;;-3.96;81.60
27712;BME280;2377;51.734;8.950;2023-01-29T01:40:09;98962.22;;;-3.93;81.33
27712;BME280;2377;51.734;8.950;2023-01-29T01:42:44;98960.63;;;-3.94;80.88
27712;BME280;2377;51.734;8.950;2023-01-29T01:45:22;98961.41;;;-3.94;81.18
27712;BME280;2377;51.734;8.950;2023-01-29T01:47:54;98965.50;;;-3.93;81.59
27712;BME280;2377;51.734;8.950;2023-01-29T01:50:29;98952.13;;;-3.92;81.64
27712;BME280;2377;51.734;8.950;2023-01-29T01:53:03;98946.16;;;-3.89;81.76
27712;BME280;2377;51.734;8.950;2023-01-29T01:55:35;98947.16;;;-3.92;81.26
27712;BME280;2377;51.734;8.950;2023-01-29T01:58:10;98945.84;;;-3.97;81.53
27712;BME280;2377;51.734;8.950;2023-01-29T02:00:39;98944.22;;;-3.98;81.87
27712;BME280;2377;51.734;8.950;2023-01-29T02:03:07;98942.63;;;-3.99;82.28
27712;BME280;2377;51.734;8.950;2023-01-29T02:05:54;98951.63;;;-3.97;82.52
27712;BME280;2377;51.734;8.950;2023-01-29T02:08:49;98947.41;;;-3.96;82.02
27712;BME280;2377;51.734;8.950;2023-01-29T02:11:36;98945.84;;;-3.97;81.94
27712;BME280;2377;51.734;8.950;2023-01-29T02:14:06;98936.63;;;-3.97;81.40
27712;BME280;2377;51.734;8.950;2023-01-29T02:16:34;98943.22;;;-3.96;81.91
27712;BME280;2377;51.734;8.950;2023-01-29T02:19:03;98943.03;;;-3.93;81.69
27712;BME280;2377;51.734;8.950;2023-01-29T02:21:56;98944.94;;;-3.96;81.61
27712;BME280;2377;51.734;8.950;2023-01-29T02:24:56;98946.63;;;-3.97;82.02
27712;BME280;2377;51.734;8.950;2023-01-29T02:27:40;98948.22;;;-3.96;82.65
27712;BME280;2377;51.734;8.950;2023-01-29T02:30:20;98958.19;;;-3.96;81.97
27712;BME280;2377;51.734;8.950;2023-01-29T02:32:57;98960.63;;;-3.94;82.40
27712;BME280;2377;51.734;8.950;2023-01-29T02:35:31;98960.50;;;-3.93;81.73
27712;BME280;2377;51.734;8.950;2023-01-29T02:38:12;98972.13;;;-3.92;81.95
27712;BME280;2377;51.734;8.950;2023-01-29T02:40:49;98958.84;;;-3.92;82.39
27712;BME280;2377;51.734;8.950;2023-01-29T02:43:31;98964.44;;;-3.89;82.14
27712;BME280;2377;51.734;8.950;2023-01-29T02:46:10;98967.72;;;-3.88;81.78
27712;BME280;2377;51.734;8.950;2023-01-29T02:48:49;98956.84;;;-3.87;82.39
27712;BME280;2377;51.734;8.950;2023-01-29T02:51:26;98953.47;;;-3.86;82.73
27712;BME280;2377;51.734;8.950;2023-01-29T02:54:02;98948.47;;;-3.86;83.13
27712;BME280;2377;51.734;8.950;2023-01-29T02:56:39;98937.75;;;-3.88;82.72
27712;BME280;2377;51.734;8.950;2023-01-29T02:59:17;98949.28;;;-3.86;83.20
27712;BME280;2377;51.734;8.950;2023-01-29T03:01:51;98958.44;;;-3.86;83.57
27712;BME280;2377;51.734;8.950;2023-01-29T03:04:25;98964.06;;;-3.83;83.50
27712;BME280;2377;51.734;8.950;2023-01-29T03:06:58;98968.16;;;-3.82;83.71
27712;BME280;2377;51.734;8.950;2023-01-29T03:09:33;98973.94;;;-3.81;83.66
27712;BME280;2377;51.734;8.950;2023-01-29T03:12:08;98973.88;;;-3.79;83.51
27712;BME280;2377;51.734;8.950;2023-01-29T03:14:57;98974.59;;;-3.77;83.47
27712;BME280;2377;51.734;8.950;2023-01-29T03:17:44;98974.50;;;-3.76;83.54
27712;BME280;2377;51.734;8.950;2023-01-29T03:20:17;98977.09;;;-3.77;83.57
27712;BME280;2377;51.734;8.950;2023-01-29T03:22:53;98982.16;;;-3.79;83.96
27712;BME280;2377;51.734;8.950;2023-01-29T03:25:24;98977.78;;;-3.75;84.08
27712;BME280;2377;51.734;8.950;2023-01-29T03:28:14;98972.72;;;-3.74;84.13
27712;BME280;2377;51.734;8.950;2023-01-29T03:31:04;98975.91;;;-3.72;83.83
27712;BME280;2377;51.734;8.950;2023-01-29T03:33:57;98968.25;;;-3.69;84.45
27712;BME280;2377;51.734;8.950;2023-01-29T03:36:32;98962.16;;;-3.65;84.30
27712;BME280;2377;51.734;8.950;2023-01-29T03:39:03;98956.97;;;-3.62;83.92
27712;BME280;2377;51.734;8.950;2023-01-29T03:41:35;98949.38;;;-3.60;83.94
27712;BME280;2377;51.734;8.950;2023-01-29T03:44:14;98950.09;;;-3.58;84.71
27712;BME280;2377;51.734;8.950;2023-01-29T03:46:51;98956.41;;;-3.52;84.87
27712;BME280;2377;51.734;8.950;2023-01-29T03:49:31;98955.22;;;-3.47;84.73
27712;BME280;2377;51.734;8.950;2023-01-29T03:52:14;98954.25;;;-3.44;84.60
27712;BME280;2377;51.734;8.950;2023-01-29T03:54:55;98949.44;;;-3.47;85.29
27712;BME280;2377;51.734;8.950;2023-01-29T03:57:33;98951.22;;;-3.49;84.53
27712;BME280;2377;51.734;8.950;2023-01-29T04:00:10;98956.22;;;-3.49;85.04
27712;BME280;2377;51.734;8.950;2023-01-29T04:02:47;98952.66;;;-3.45;85.15
27712;BME280;2377;51.734;8.950;2023-01-29T04:05:23;98954.94;;;-3.42;84.92
27712;BME280;2377;51.734;8.950;2023-01-29T04:07:56;98951.47;;;-3.40;84.93
27712;BME280;2377;51.734;8.950;2023-01-29T04:10:28;98945.56;;;-3.38;84.46
27712;BME280;2377;51.734;8.950;2023-01-29T04:13:00;98945.47;;;-3.37;85.32
27712;BME280;2377;51.734;8.950;2023-01-29T04:15:36;98946.16;;;-3.35;84.94
27712;BME280;2377;51.734;8.950;2023-01-29T04:18:05;98942.59;;;-3.31;84.68
27712;BME280;2377;51.734;8.950;2023-01-29T04:20:34;98940.69;;;-3.27;84.71
27712;BME280;2377;51.734;8.950;2023-01-29T04:23:05;98939.91;;;-3.28;85.08
27712;BME280;2377;51.734;8.950;2023-01-29T04:25:42;98947.00;;;-3.22;85.51
27712;BME280;2377;51.734;8.950;2023-01-29T04:28:19;98929.31;;;-3.19;85.62
27712;BME280;2377;51.734;8.950;2023-01-29T04:30:55;98929.94;;;-3.15;85.55
27712;BME280;2377;51.734;8.950;2023-01-29T04:33:33;98922.31;;;-3.13;85.52
27712;BME280;2377;51.734;8.950;2023-01-29T04:36:20;98913.94;;;-3.12;85.28
27712;BME280;2377;51.734;8.950;2023-01-29T04:39:05;98908.94;;;-3.12;85.96
27712;BME280;2377;51.734;8.950;2023-01-29T04:41:44;98902.94;;;-3.10;85.85
27712;BME280;2377;51.734;8.950;2023-01-29T04:44:23;98894.31;;;-3.06;86.11
27712;BME280;2377;51.734;8.950;2023-01-29T04:47:04;98898.16;;;-3.00;85.62
27712;BME280;2377;51.734;8.950;2023-01-29T04:49:45;98889.56;;;-2.96;86.42
27712;BME280;2377;51.734;8.950;2023-01-29T04:52:23;98877.72;;;-2.94;86.32
27712;BME280;2377;51.734;8.950;2023-01-29T04:55:02;98866.84;;;-2.93;86.67
27712;BME280;2377;51.734;8.950;2023-01-29T04:57:35;98854.13;;;-2.90;86.48
27712;BME280;2377;51.734;8.950;2023-01-29T05:00:12;98848.94;;;-2.87;86.56
27712;BME280;2377;51.734;8.950;2023-01-29T05:02:43;98854.81;;;-2.88;86.12
27712;BME280;2377;51.734;8.950;2023-01-29T05:05:13;98841.31;;;-2.85;86.73
27712;BME280;2377;51.734;8.950;2023-01-29T05:07:44;98845.31;;;-2.83;86.75
27712;BME280;2377;51.734;8.950;2023-01-29T05:10:14;98840.31;;;-2.83;87.13
27712;BME280;2377;51.734;8.950;2023-01-29T05:12:48;98842.81;;;-2.83;86.83
27712;BME280;2377;51.734;8.950;2023-01-29T05:15:23;98846.94;;;-2.82;87.05
27712;BME280;2377;51.734;8.950;2023-01-29T05:17:52;98844.31;;;-2.80;87.12
27712;BME280;2377;51.734;8.950;2023-01-29T05:20:27;98841.72;;;-2.79;86.83
27712;BME280;2377;51.734;8.950;2023-01-29T05:22:57;98836.50;;;-2.76;87.25
27712;BME280;2377;51.734;8.950;2023-01-29T05:25:28;98841.31;;;-2.72;87.11
27712;BME280;2377;51.734;8.950;2023-01-29T05:27:55;98841.09;;;-2.69;87.21
27712;BME280;2377;51.734;8.950;2023-01-29T05:30:35;98842.50;;;-2.65;86.94
27712;BME280;2377;51.734;8.950;2023-01-29T05:33:11;98843.88;;;-2.61;87.05
27712;BME280;2377;51.734;8.950;2023-01-29T05:35:38;98857.09;;;-2.59;87.83
27712;BME280;2377;51.734;8.950;2023-01-29T05:38:07;98856.09;;;-2.57;87.58
27712;BME280;2377;51.734;8.950;2023-01-29T05:40:34;98859.09;;;-2.51;87.68
27712;BME280;2377;51.734;8.950;2023-01-29T05:43:01;98857.97;;;-2.47;87.43
27712;BME280;2377;51.734;8.950;2023-01-29T05:45:29;98860.16;;;-2.43;87.60
27712;BME280;2377;51.734;8.950;2023-01-29T05:47:56;98865.88;;;-2.41;87.25
27712;BME280;2377;51.734;8.950;2023-01-29T05:50:24;98873.06;;;-2.36;87.28
27712;BME280;2377;51.734;8.950;2023-01-29T05:52:56;98887.88;;;-2.33;87.12
27712;BME280;2377;51.734;8.950;2023-01-29T05:55:25;98888.50;;;-2.29;87.68
27712;BME280;2377;51.734;8.950;2023-01-29T05:57:52;98886.69;;;-2.27;87.73
27712;BME280;2377;51.734;8.950;2023-01-29T06:00:20;98877.47;;;-2.27;88.05
27712;BME280;2377;51.734;8.950;2023-01-29T06:02:47;98874.16;;;-2.27;88.14
27712;BME280;2377;51.734;8.950;2023-01-29T06:05:14;98877.47;;;-2.27;88.26
27712;BME280;2377;51.734;8.950;2023-01-29T06:07:41;98879.88;;;-2.25;88.73
27712;BME280;2377;51.734;8.950;2023-01-29T06:10:11;98890.28;;;-2.31;89.49
27712;BME280;2377;51.734;8.950;2023-01-29T06:12:39;98903.72;;;-2.32;89.83
27712;BME280;2377;51.734;8.950;2023-01-29T06:15:08;98906.72;;;-2.27;90.06
27712;BME280;2377;51.734;8.950;2023-01-29T06:17:35;98915.63;;;-2.23;89.70
27712;BME280;2377;51.734;8.950;2023-01-29T06:20:04;98910.19;;;-2.17;89.95
27712;BME280;2377;51.734;8.950;2023-01-29T06:22:32;98909.09;;;-2.13;89.29
27712;BME280;2377;51.734;8.950;2023-01-29T06:24:59;98917.06;;;-2.08;89.50
27712;BME280;2377;51.734;8.950;2023-01-29T06:27:26;98903.66;;;-2.07;88.63
27712;BME280;2377;51.734;8.950;2023-01-29T06:29:55;98890.22;;;-2.06;88.95
27712;BME280;2377;51.734;8.950;2023-01-29T06:32:22;98880.91;;;-2.04;89.24
27712;BME280;2377;51.734;8.950;2023-01-29T06:34:49;98898.22;;;-2.01;89.08
27712;BME280;2377;51.734;8.950;2023-01-29T06:37:17;98901.84;;;-2.05;89.30
27712;BME280;2377;51.734;8.950;2023-01-29T06:39:44;98904.16;;;-2.02;89.00
27712;BME280;2377;51.734;8.950;2023-01-29T06:42:12;98909.72;;;-1.98;89.25
27712;BME280;2377;51.734;8.950;2023-01-29T06:44:39;98904.63;;;-1.97;89.10
27712;BME280;2377;51.734;8.950;2023-01-29T06:47:07;98907.84;;;-1.95;89.04
27712;BME280;2377;51.734;8.950;2023-01-29T06:49:34;98907.03;;;-1.95;88.84
27712;BME280;2377;51.734;8.950;2023-01-29T06:52:01;98917.63;;;-1.92;89.30
27712;BME280;2377;51.734;8.950;2023-01-29T06:54:28;98926.72;;;-1.91;89.18
27712;BME280;2377;51.734;8.950;2023-01-29T06:56:55;98911.84;;;-1.92;89.23
27712;BME280;2377;51.734;8.950;2023-01-29T06:59:22;98904.19;;;-1.91;89.16
27712;BME280;2377;51.734;8.950;2023-01-29T07:01:49;98903.22;;;-1.88;89.64
27712;BME280;2377;51.734;8.950;2023-01-29T07:04:18;98896.34;;;-1.86;89.25
27712;BME280;2377;51.734;8.950;2023-01-29T07:06:45;98903.69;;;-1.83;89.06
27712;BME280;2377;51.734;8.950;2023-01-29T07:09:13;98906.06;;;-1.81;89.01
27712;BME280;2377;51.734;8.950;2023-01-29T07:11:40;98903.38;;;-1.78;89.03
27712;BME280;2377;51.734;8.950;2023-01-29T07:14:08;98911.78;;;-1.79;89.03
27712;BME280;2377;51.734;8.950;2023-01-29T07:16:35;98909.25;;;-1.79;89.25
27712;BME280;2377;51.734;8.950;2023-01-29T07:19:02;98904.72;;;-1.74;88.97
27712;BME280;2377;51.734;8.950;2023-01-29T07:21:30;98902.91;;;-1.72;88.99
27712;BME280;2377;51.734;8.950;2023-01-29T07:23:57;98906.13;;;-1.70;89.37
27712;BME280;2377;51.734;8.950;2023-01-29T07:26:24;98900.22;;;-1.69;89.37
27712;BME280;2377;51.734;8.950;2023-01-29T07:28:51;98891.69;;;-1.66;89.26
27712;BME280;2377;51.734;8.950;2023-01-29T07:31:18;98900.69;;;-1.64;89.37
27712;BME280;2377;51.734;8.950;2023-01-29T07:33:46;98914.94;;;-1.64;90.30
27712;BME280;2377;51.734;8.950;2023-01-29T07:36:14;98919.13;;;-1.65;89.93
27712;BME280;2377;51.734;8.950;2023-01-29T07:38:42;98923.94;;;-1.62;89.85
27712;BME280;2377;51.734;8.950;2023-01-29T07:41:10;98917.78;;;-1.58;89.49
27712;BME280;2377;51.734;8.950;2023-01-29T07:43:38;98912.69;;;-1.56;89.86
27712;BME280;2377;51.734;8.950;2023-01-29T07:46:05;98917.47;;;-1.53;89.29
27712;BME280;2377;51.734;8.950;2023-01-29T07:48:32;98906.34;;;-1.49;89.69
27712;BME280;2377;51.734;8.950;2023-01-29T07:50:59;98904.63;;;-1.49;89.40
27712;BME280;2377;51.734;8.950;2023-01-29T07:53:27;98896.91;;;-1.45;89.52
27712;BME280;2377;51.734;8.950;2023-01-29T07:55:56;98886.19;;;-1.47;89.41
27712;BME280;2377;51.734;8.950;2023-01-29T07:58:23;98896.91;;;-1.45;89.74
27712;BME280;2377;51.734;8.950;2023-01-29T08:00:50;98897.38;;;-1.40;89.88
27712;BME280;2377;51.734;8.950;2023-01-29T08:03:19;98899.66;;;-1.37;89.60
27712;BME280;2377;51.734;8.950;2023-01-29T08:05:46;98896.13;;;-1.35;89.54
27712;BME280;2377;51.734;8.950;2023-01-29T08:08:14;98898.44;;;-1.32;89.42
27712;BME280;2377;51.734;8.950;2023-01-29T08:10:41;98895.78;;;-1.30;89.41
27712;BME280;2377;51.734;8.950;2023-01-29T08:13:10;98893.88;;;-1.26;89.52
27712;BME280;2377;51.734;8.950;2023-01-29T08:15:37;98879.63;;;-1.26;89.48
27712;BME280;2377;51.734;8.950;2023-01-29T08:18:04;98877.81;;;-1.24;89.49
27712;BME280;2377;51.734;8.950;2023-01-29T08:20:32;98875.41;;;-1.25;89.66
27712;BME280;2377;51.734;8.950;2023-01-29T08:23:00;98884.53;;;-1.24;89.60
27712;BME280;2377;51.734;8.950;2023-01-29T08:25:28;98891.03;;;-1.22;89.96
27712;BME280;2377;51.734;8.950;2023-01-29T08:27:56;98883.38;;;-1.20;89.84
27712;BME280;2377;51.734;8.950;2023-01-29T08:30:27;98866.66;;;-1.20;89.55
27712;BME280;2377;51.734;8.950;2023-01-29T08:32:54;98849.91;;;-1.19;90.12
27712;BME280;2377;51.734;8.950;2023-01-29T08:35:22;98839.72;;;-1.18;90.24
27712;BME280;2377;51.734;8.950;2023-01-29T08:37:53;98830.28;;;-1.14;90.23
27712;BME280;2377;51.734;8.950;2023-01-29T08:40:20;98835.19;;;-1.13;90.60
27712;BME280;2377;51.734;8.950;2023-01-29T08:42:48;98838.38;;;-1.11;90.75
27712;BME280;2377;51.734;8.950;2023-01-29T08:45:15;98843.19;;;-1.08;90.57
27712;BME280;2377;51.734;8.950;2023-01-29T08:47:48;98831.09;;;-1.02;90.44
27712;BME280;2377;51.734;8.950;2023-01-29T08:50:16;98834.28;;;-1.00;90.70
27712;BME280;2377;51.734;8.950;2023-01-29T08:52:44;98820.63;;;-0.96;90.80
27712;BME280;2377;51.734;8.950;2023-01-29T08:55:11;98833.03;;;-0.95;90.98
27712;BME280;2377;51.734;8.950;2023-01-29T08:57:39;98828.59;;;-0.91;90.54
27712;BME280;2377;51.734;8.950;2023-01-29T09:00:08;98829.94;;;-0.87;90.58
27712;BME280;2377;51.734;8.950;2023-01-29T09:02:36;98832.59;;;-0.89;90.71
27712;BME280;2377;51.734;8.950;2023-01-29T09:05:05;98828.47;;;-0.90;90.57
27712;BME280;2377;51.734;8.950;2023-01-29T09:07:33;98825.97;;;-0.90;90.64
27712;BME280;2377;51.734;8.950;2023-01-29T09:10:00;98834.06;;;-0.86;90.68
27712;BME280;2377;51.734;8.950;2023-01-29T09:12:27;98824.81;;;-0.86;90.46
27712;BME280;2377;51.734;8.950;2023-01-29T09:14:54;98828.03;;;-0.83;90.62
27712;BME280;2377;51.734;8.950;2023-01-29T09:17:21;98826.22;;;-0.81;90.84
27712;BME280;2377;51.734;8.950;2023-01-29T09:19:48;98815.81;;;-0.77;90.82
27712;BME280;2377;51.734;8.950;2023-01-29T09:22:18;98813.19;;;-0.75;90.84
27712;BME280;2377;51.734;8.950;2023-01-29T09:24:45;98811.50;;;-0.75;90.44
27712;BME280;2377;51.734;8.950;2023-01-29T09:27:12;98813.06;;;-0.74;90.85
27712;BME280;2377;51.734;8.950;2023-01-29T09:29:39;98818.53;;;-0.69;90.58
27712;BME280;2377;51.734;8.950;2023-01-29T09:32:06;98818.53;;;-0.69;90.82
27712;BME280;2377;51.734;8.950;2023-01-29T09:34:34;98825.53;;;-0.61;90.90
27712;BME280;2377;51.734;8.950;2023-01-29T09:37:01;98823.47;;;-0.56;90.57
27712;BME280;2377;51.734;8.950;2023-01-29T09:39:29;98823.66;;;-0.48;90.86
27712;BME280;2377;51.734;8.950;2023-01-29T09:42:07;98821.47;;;-0.41;90.49
27712;BME280;2377;51.734;8.950;2023-01-29T09:44:53;98820.78;;;-0.32;90.57
27712;BME280;2377;51.734;8.950;2023-01-29T09:47:26;98822.84;;;-0.26;90.55
27712;BME280;2377;51.734;8.950;2023-01-29T09:49:58;98827.16;;;-0.16;90.57
27712;BME280;2377;51.734;8.950;2023-01-29T09:52:30;98824.84;;;-0.08;90.46
27712;BME280;2377;51.734;8.950;2023-01-29T09:55:05;98822.53;;;0.00;90.32
27712;BME280;2377;51.734;8.950;2023-01-29T09:57:44;98821.34;;;0.04;90.19
27712;BME280;2377;51.734;8.950;2023-01-29T10:00:18;98819.28;;;0.09;90.57
27712;BME280;2377;51.734;8.950;2023-01-29T10:03:16;98826.59;;;0.12;90.30
27712;BME280;2377;51.734;8.950;2023-01-29T10:06:04;98826.25;;;0.17;90.29
27712;BME280;2377;51.734;8.950;2023-01-29T10:09:25;98821.06;;;0.18;89.87
27712;BME280;2377;51.734;8.950;2023-01-29T10:12:13;98816.63;;;0.22;89.64
27712;BME280;2377;51.734;8.950;2023-01-29T10:14:55;98808.03;;;0.25;89.50
27712;BME280;2377;51.734;8.950;2023-01-29T10:17:59;98797.88;;;0.26;89.55
27712;BME280;2377;51.734;8.950;2023-01-29T10:20:42;98795.78;;;0.31;89.81
27712;BME280;2377;51.734;8.950;2023-01-29T10:23:25;98793.56;;;0.38;90.13
27712;BME280;2377;51.734;8.950;2023-01-29T10:25:53;98785.53;;;0.44;89.73
27712;BME280;2377;51.734;8.950;2023-01-29T10:28:28;98782.53;;;0.50;89.60
27712;BME280;2377;51.734;8.950;2023-01-29T10:31:03;98783.63;;;0.57;89.46
27712;BME280;2377;51.734;8.950;2023-01-29T10:33:38;98776.00;;;0.69;89.62
27712;BME280;2377;51.734;8.950;2023-01-29T10:36:11;98781.34;;;0.75;89.74
27712;BME280;2377;51.734;8.950;2023-01-29T10:38:45;98774.75;;;0.84;89.48
27712;BME280;2377;51.734;8.950;2023-01-29T10:41:44;98769.22;;;0.90;88.95
27712;BME280;2377;51.734;8.950;2023-01-29T10:44:28;98763.91;;;0.93;88.47
27712;BME280;2377;51.734;8.950;2023-01-29T10:47:32;98750.44;;;0.94;88.01
27712;BME280;2377;51.734;8.950;2023-01-29T10:50:25;98747.78;;;0.96;87.91
27712;BME280;2377;51.734;8.950;2023-01-29T10:53:18;98751.63;;;1.00;87.93
27712;BME280;2377;51.734;8.950;2023-01-29T10:55:59;98743.03;;;1.02;87.58
27712;BME280;2377;51.734;8.950;2023-01-29T10:58:36;98743.59;;;1.06;87.05
27712;BME280;2377;51.734;8.950;2023-01-29T11:01:08;98733.50;;;1.06;86.77
27712;BME280;2377;51.734;8.950;2023-01-29T11:03:36;98726.75;;;1.07;86.96
27712;BME280;2377;51.734;8.950;2023-01-29T11:06:15;98722.63;;;1.05;86.59
27712;BME280;2377;51.734;8.950;2023-01-29T11:08:52;98725.56;;;1.11;86.37
27712;BME280;2377;51.734;8.950;2023-01-29T11:11:30;98726.09;;;1.14;86.11
27712;BME280;2377;51.734;8.950;2023-01-29T11:14:03;98729.03;;;1.19;86.33
27712;BME280;2377;51.734;8.950;2023-01-29T11:16:41;98725.22;;;1.25;86.39
27712;BME280;2377;51.734;8.950;2023-01-29T11:19:09;98728.91;;;1.31;85.39
27712;BME280;2377;51.734;8.950;2023-01-29T11:21:51;98722.41;;;1.28;85.11
27712;BME280;2377;51.734;8.950;2023-01-29T11:24:18;98716.88;;;1.34;85.22
27712;BME280;2377;51.734;8.950;2023-01-29T11:26:49;98718.47;;;1.35;84.86
27712;BME280;2377;51.734;8.950;2023-01-29T11:29:37;98698.03;;;1.38;84.79
27712;BME280;2377;51.734;8.950;2023-01-29T11:32:11;98687.72;;;1.41;84.60
27712;BME280;2377;51.734;8.950;2023-01-29T11:35:00;98685.72;;;1.45;84.17
27712;BME280;2377;51.734;8.950;2023-01-29T11:37:36;98676.81;;;1.41;84.23
27712;BME280;2377;51.734;8.950;2023-01-29T11:40:37;98679.50;;;1.39;84.00
27712;BME280;2377;51.734;8.950;2023-01-29T11:43:21;98684.25;;;1.42;84.24
27712;BME280;2377;51.734;8.950;2023-01-29T11:45:51;98678.94;;;1.45;84.13
27712;BME280;2377;51.734;8.950;2023-01-29T11:48:22;98674.19;;;1.42;84.36
27712;BME280;2377;51.734;8.950;2023-01-29T11:50:55;98670.22;;;1.50;83.92
27712;BME280;2377;51.734;8.950;2023-01-29T11:53:36;98662.53;;;1.51;82.88
27712;BME280;2377;51.734;8.950;2023-01-29T11:56:16;98651.66;;;1.51;82.60
27712;BME280;2377;51.734;8.950;2023-01-29T11:58:45;98651.38;;;1.54;83.46
27712;BME280;2377;51.734;8.950;2023-01-29T12:01:17;98649.53;;;1.56;82.97
27712;BME280;2377;51.734;8.950;2023-01-29T12:03:53;98636.28;;;1.54;82.52
27712;BME280;2377;51.734;8.950;2023-01-29T12:06:23;98634.81;;;1.61;82.62
27712;BME280;2377;51.734;8.950;2023-01-29T12:08:57;98635.22;;;1.56;82.65
27712;BME280;2377;51.734;8.950;2023-01-29T12:11:30;98628.84;;;1.62;82.92
27712;BME280;2377;51.734;8.950;2023-01-29T12:13:59;98626.69;;;1.67;82.09
27712;BME280;2377;51.734;8.950;2023-01-29T12:16:32;98625.78;;;1.68;82.42
27712;BME280;2377;51.734;8.950;2023-01-29T12:19:13;98619.56;;;1.72;82.47
27712;BME280;2377;51.734;8.950;2023-01-29T12:21:47;98622.97;;;1.71;82.42
27712;BME280;2377;51.734;8.950;2023-01-29T12:24:30;98609.47;;;1.72;82.78
27712;BME280;2377;51.734;8.950;2023-01-29T12:27:08;98610.38;;;1.71;82.50
27712;BME280;2377;51.734;8.950;2023-01-29T12:29:48;98608.41;;;1.75;82.44
27712;BME280;2377;51.734;8.950;2023-01-29T12:32:31;98609.84;;;1.77;82.49
27712;BME280;2377;51.734;8.950;2023-01-29T12:35:11;98591.69;;;1.74;81.81
27712;BME280;2377;51.734;8.950;2023-01-29T12:37:52;98587.47;;;1.74;82.37
27712;BME280;2377;51.734;8.950;2023-01-29T12:40:26;98587.19;;;1.77;81.95
27712;BME280;2377;51.734;8.950;2023-01-29T12:43:00;98585.03;;;1.82;82.12
27712;BME280;2377;51.734;8.950;2023-01-29T12:45:30;98578.66;;;1.78;82.28
27712;BME280;2377;51.734;8.950;2023-01-29T12:48:07;98570.84;;;1.81;82.34
27712;BME280;2377;51.734;8.950;2023-01-29T12:50:37;98562.34;;;1.82;81.34
27712;BME280;2377;51.734;8.950;2023-01-29T12:53:17;98564.75;;;1.84;81.64
27712;BME280;2377;51.734;8.950;2023-01-29T12:55:53;98563.69;;;1.86;82.15
27712;BME280;2377;51.734;8.950;2023-01-29T12:58:31;98557.56;;;1.89;81.51
27712;BME280;2377;51.734;8.950;2023-01-29T13:01:07;98557.56;;;1.89;81.68
27712;BME280;2377;51.734;8.950;2023-01-29T13:03:48;98546.69;;;1.88;82.44
27712;BME280;2377;51.734;8.950;2023-01-29T13:06:25;98545.09;;;1.87;81.61
27712;BME280;2377;51.734;8.950;2023-01-29T13:08:58;98535.00;;;1.87;81.89
27712;BME280;2377;51.734;8.950;2023-01-29T13:11:35;98535.28;;;1.84;82.29
27712;BME280;2377;51.734;8.950;2023-01-29T13:14:12;98534.59;;;1.92;81.95
27712;BME280;2377;51.734;8.950;2023-01-29T13:16:49;98531.94;;;1.94;82.12
27712;BME280;2377;51.734;8.950;2023-01-29T13:19:26;98530.34;;;1.93;82.55
27712;BME280;2377;51.734;8.950;2023-01-29T13:21:59;98526.66;;;1.87;82.09
27712;BME280;2377;51.734;8.950;2023-01-29T13:24:37;98534.59;;;1.92;82.20
27712;BME280;2377;51.734;8.950;2023-01-29T13:27:06;98525.22;;;1.84;82.14
27712;BME280;2377;51.734;8.950;2023-01-29T13:29:33;98522.41;;;1.87;81.81
27712;BME280;2377;51.734;8.950;2023-01-29T13:32:03;98517.38;;;1.87;82.47
27712;BME280;2377;51.734;8.950;2023-01-29T13:34:36;98526.13;;;1.83;81.97
27712;BME280;2377;51.734;8.950;2023-01-29T13:37:19;98520.16;;;1.84;81.81
27712;BME280;2377;51.734;8.950;2023-01-29T13:39:52;98521.91;;;1.84;81.71
27712;BME280;2377;51.734;8.950;2023-01-29T13:42:23;98521.91;;;1.84;82.44
27712;BME280;2377;51.734;8.950;2023-01-29T13:44:53;98518.56;;;1.83;81.87
27712;BME280;2377;51.734;8.950;2023-01-29T13:47:24;98514.59;;;1.81;82.23
27712;BME280;2377;51.734;8.950;2023-01-29T13:49:57;98505.47;;;1.80;81.60